CAL066 OEJN-KJFK
Flight info
| Callsign | CAL066 |
|---|---|
| Flight time | N/A |
| Altitude | 36000 |
| Route | MIGDA L677 CVO L617 TANSA UL613 KOR DCT DIMIS DCT VAKSU/N0490F380 DCT ROTAR DCT RESIA DCT ELMUR L613 HOC DCT LUL DCT RLP DCT ROTSI DCT KOTUN DCT AMAXA DCT VESAN DCT RATUK DCT SOVAT L613 SANDY L722 ICTAM L179 SAWPE DCT OZZIL DCT ARPAK DCT FELCA DCT OFSOX DCT SLANY DCT MALOT/M084F400 DCT 53N020W 53N030W 53N040W 51N050W DCT ALLRY/N0482F400 N476B TOPPS DCT ENE PARCH3 |
| Aircraft | A359/H-SDE1E2E3FGHIJ1J2J3J4J5M1P2RWY/LB1D1 |
Departure
| Time | N/A |
|---|---|
| Airport | King Abdulaziz International Airport (OEJN) |
Arrival
| Time | 2026-05-01 10:39 |
|---|---|
| Airport | John F. Kennedy International Airport (KJFK) |
| Time | Latitude | Longitude | Altitude | Speed | Heading |
|---|---|---|---|---|---|
| 2026-05-01 10:32 | 40.57285 | -73.40826 | 4698 ft | 255 kts | 250° |
| 2026-05-01 10:32 | 40.55989 | -73.45113 | 4247 ft | 244 kts | 250° |
| 2026-05-01 10:33 | 40.54788 | -73.49079 | 3870 ft | 229 kts | 250° |
| 2026-05-01 10:33 | 40.53634 | -73.52940 | 3312 ft | 224 kts | 252° |
| 2026-05-01 10:34 | 40.53345 | -73.54900 | 3191 ft | 217 kts | 270° |
| 2026-05-01 10:34 | 40.53598 | -73.56844 | 3094 ft | 217 kts | 291° |
| 2026-05-01 10:34 | 40.54286 | -73.58609 | 3023 ft | 217 kts | 300° |
| 2026-05-01 10:35 | 40.55819 | -73.61762 | 3009 ft | 188 kts | 299° |
| 2026-05-01 10:35 | 40.56458 | -73.63208 | 2848 ft | 180 kts | 300° |
| 2026-05-01 10:35 | 40.57097 | -73.64607 | 2556 ft | 176 kts | 300° |
| 2026-05-01 10:35 | 40.57719 | -73.65969 | 2305 ft | 169 kts | 300° |
| 2026-05-01 10:36 | 40.58857 | -73.68483 | 1854 ft | 155 kts | 300° |
| 2026-05-01 10:36 | 40.59410 | -73.69701 | 1635 ft | 155 kts | 300° |
| 2026-05-01 10:36 | 40.59950 | -73.70892 | 1425 ft | 148 kts | 300° |
| 2026-05-01 10:37 | 40.60453 | -73.72009 | 1220 ft | 137 kts | 300° |
| 2026-05-01 10:37 | 40.61384 | -73.74154 | 739 ft | 133 kts | 301° |
| 2026-05-01 10:37 | 40.61853 | -73.75179 | 557 ft | 128 kts | 303° |
| 2026-05-01 10:38 | 40.62321 | -73.76171 | 414 ft | 127 kts | 302° |
| 2026-05-01 10:38 | 40.62769 | -73.77161 | 224 ft | 126 kts | 302° |
| 2026-05-01 10:38 | 40.63223 | -73.78136 | 66 ft | 124 kts | 303° |
| 2026-05-01 10:38 | 40.63645 | -73.79040 | 28 ft | 86 kts | 300° |
| 2026-05-01 10:39 | 40.63827 | -73.79443 | 30 ft | 14 kts | 301° |
| 2026-05-01 10:39 | 40.63841 | -73.79465 | 32 ft | 8 kts | 312° |
| 2026-05-01 10:39 | 40.63881 | -73.79502 | 26 ft | 8 kts | 342° |
| 2026-05-01 10:39 | 40.63977 | -73.79517 | 27 ft | 15 kts | 0° |
| 2026-05-01 10:40 | 40.64089 | -73.79512 | 27 ft | 17 kts | 3° |
| 2026-05-01 10:40 | 40.64188 | -73.79481 | 27 ft | 12 kts | 47° |
| 2026-05-01 10:40 | 40.64243 | -73.79394 | 27 ft | 12 kts | 44° |
| 2026-05-01 10:40 | 40.64271 | -73.79364 | 27 ft | 1 kts | 48° |
| 2026-05-01 10:41 | 40.64281 | -73.79348 | 27 ft | 5 kts | 48° |
| 2026-05-01 10:41 | 40.64285 | -73.79328 | 27 ft | 0 kts | 98° |
| 2026-05-01 10:41 | 40.64255 | -73.79287 | 27 ft | 6 kts | 148° |
| 2026-05-01 10:42 | 40.64230 | -73.79268 | 27 ft | 2 kts | 149° |
| 2026-05-01 10:42 | 40.64229 | -73.79266 | 27 ft | 0 kts | 149° |
| 2026-05-01 10:42 | 40.64228 | -73.79266 | 27 ft | 0 kts | 149° |
| 2026-05-01 10:42 | 40.64226 | -73.79264 | 27 ft | 2 kts | 149° |
| 2026-05-01 10:43 | 40.64224 | -73.79263 | 27 ft | 0 kts | 149° |